Time;durP1;ratioP1;P1;durP2;ratioP2;P2;SDS_P1;SDS_P2;PMS_P1;PMS_P2;Temp;Humidity;BMP_temperature;BMP_pressure;BME280_temperature;BME280_humidity;BME280_pressure;Samples;Min_cycle;Max_cycle;Signal;HPM_P1;HPM_P2
2023/01/31 00:01:39;;;;;;;2.10;1.50;;;;;;;2.35;100.00;99566.50;5091483;28;20253;-77
2023/01/31 00:04:11;;;;;;;4.23;1.60;;;;;;;2.30;100.00;99568.72;5091359;28;20374;-77
2023/01/31 00:06:42;;;;;;;3.60;1.80;;;;;;;2.18;100.00;99554.78;5091451;28;20284;-77
2023/01/31 00:09:10;;;;;;;2.87;1.60;;;;;;;2.28;100.00;99554.81;5091380;28;20268;-77
2023/01/31 00:11:36;;;;;;;4.33;1.70;;;;;;;2.31;100.00;99565.91;5091508;28;20303;-77
2023/01/31 00:14:04;;;;;;;3.20;1.50;;;;;;;2.44;100.00;99582.34;5086721;28;20360;-77
2023/01/31 00:16:30;;;;;;;3.43;1.50;;;;;;;2.68;100.00;99597.00;5071329;28;20051;-77
2023/01/31 00:18:56;;;;;;;3.50;1.50;;;;;;;2.88;100.00;99590.81;5071431;28;20332;-77
2023/01/31 00:21:25;;;;;;;2.97;1.60;;;;;;;2.78;100.00;99560.91;5053224;28;20886;-77
2023/01/31 00:23:52;;;;;;;4.00;1.70;;;;;;;2.95;100.00;99583.16;5071181;28;20522;-76
2023/01/31 00:26:21;;;;;;;2.80;1.43;;;;;;;2.99;100.00;99584.56;5071110;28;20289;-77
2023/01/31 00:28:48;;;;;;;2.60;1.50;;;;;;;2.89;100.00;99593.28;5071190;28;20295;-77
2023/01/31 00:31:16;;;;;;;4.37;1.57;;;;;;;3.16;100.00;99591.78;5071133;28;20257;-77
2023/01/31 00:33:43;;;;;;;3.07;1.40;;;;;;;3.09;100.00;99574.84;5070992;28;20309;-77
2023/01/31 00:36:15;;;;;;;2.37;1.37;;;;;;;3.02;100.00;99568.44;5072372;28;20334;-77
2023/01/31 00:38:41;;;;;;;3.87;1.67;;;;;;;3.13;100.00;99578.84;5075310;28;20807;-77
2023/01/31 00:41:08;;;;;;;2.77;1.40;;;;;;;3.01;100.00;99572.88;5075157;28;20336;-77
2023/01/31 00:43:36;;;;;;;2.90;1.43;;;;;;;3.08;100.00;99583.75;5075155;28;20360;-77
2023/01/31 00:46:03;;;;;;;6.13;1.80;;;;;;;3.09;100.00;99582.78;5075042;28;20297;-77
2023/01/31 00:48:29;;;;;;;4.67;1.80;;;;;;;3.47;100.00;99587.19;5075049;28;20257;-77
2023/01/31 00:50:55;;;;;;;4.20;1.57;;;;;;;3.37;100.00;99581.09;5075045;28;20297;-77
2023/01/31 00:53:22;;;;;;;3.57;1.93;;;;;;;3.42;100.00;99589.44;5074854;28;20366;-77
2023/01/31 00:56:01;;;;;;;4.00;1.70;;;;;;;3.26;100.00;99595.25;5074900;28;20035;-77
2023/01/31 00:58:27;;;;;;;3.93;1.70;;;;;;;3.40;100.00;99605.41;5074792;28;20261;-77
2023/01/31 01:00:52;;;;;;;4.17;1.90;;;;;;;3.32;100.00;99617.66;5074727;28;20623;-77
2023/01/31 01:03:18;;;;;;;3.43;1.70;;;;;;;3.46;100.00;99635.75;5074713;28;20261;-77
2023/01/31 01:05:43;;;;;;;4.63;1.87;;;;;;;3.50;100.00;99608.91;5074689;28;20123;-77
2023/01/31 01:08:09;;;;;;;3.57;1.70;;;;;;;3.47;100.00;99610.97;5074867;28;20475;-77
2023/01/31 01:10:35;;;;;;;5.27;1.70;;;;;;;3.47;100.00;99617.09;5074761;28;20020;-77
2023/01/31 01:13:01;;;;;;;4.30;1.60;;;;;;;3.38;100.00;99619.75;5056527;28;20025;-77
2023/01/31 01:15:26;;;;;;;4.67;2.30;;;;;;;3.17;100.00;99615.44;5090680;28;20016;-77
2023/01/31 01:18:12;;;;;;;4.87;1.50;;;;;;;3.01;100.00;99627.47;5094721;28;20279;-77
2023/01/31 01:20:38;;;;;;;5.70;1.73;;;;;;;3.10;100.00;99619.59;5032025;28;20048;-77
2023/01/31 01:23:04;;;;;;;3.37;1.57;;;;;;;3.08;100.00;99602.22;5032045;28;20295;-77
2023/01/31 01:25:30;;;;;;;4.87;1.70;;;;;;;3.07;100.00;99611.09;5032121;28;20042;-77
2023/01/31 01:27:55;;;;;;;2.77;1.60;;;;;;;2.91;100.00;99609.00;5031843;28;20369;-77
2023/01/31 01:30:21;;;;;;;4.03;1.67;;;;;;;2.87;100.00;99607.63;5031869;28;20029;-77
2023/01/31 01:32:47;;;;;;;4.63;1.70;;;;;;;2.88;100.00;99602.16;5031882;28;20472;-77
2023/01/31 01:35:13;;;;;;;5.43;1.70;;;;;;;2.95;100.00;99601.66;5031711;28;20484;-77
2023/01/31 01:37:38;;;;;;;3.90;1.70;;;;;;;3.03;100.00;99607.06;5031940;28;20282;-77
2023/01/31 01:40:05;;;;;;;4.27;1.60;;;;;;;3.12;100.00;99620.28;5031794;28;20160;-77
2023/01/31 01:42:34;;;;;;;3.73;1.53;;;;;;;2.95;100.00;99622.75;5031697;28;20274;-77
2023/01/31 01:45:14;;;;;;;5.50;1.70;;;;;;;2.98;100.00;99657.66;5031424;28;20635;-77
2023/01/31 01:47:49;;;;;;;4.07;1.70;;;;;;;3.26;100.00;99653.38;5031025;28;20262;-77
2023/01/31 01:50:38;;;;;;;3.03;1.70;;;;;;;3.45;100.00;99642.00;5031591;28;20276;-77
2023/01/31 01:53:21;;;;;;;2.93;1.40;;;;;;;3.16;100.00;99626.13;5031466;28;20254;-77
2023/01/31 01:55:57;;;;;;;4.83;1.60;;;;;;;3.27;100.00;99634.75;5031563;28;20267;-77
2023/01/31 01:58:27;;;;;;;3.77;1.60;;;;;;;3.20;100.00;99631.00;5071086;28;20264;-77
2023/01/31 02:00:54;;;;;;;6.13;1.70;;;;;;;3.22;100.00;99636.16;5094272;28;20260;-77
2023/01/31 02:03:21;;;;;;;4.20;1.63;;;;;;;3.11;100.00;99645.03;5093683;28;20268;-77
2023/01/31 02:05:55;;;;;;;6.40;1.93;;;;;;;3.17;100.00;99654.19;5093551;28;20748;-77
2023/01/31 02:08:23;;;;;;;4.13;1.53;;;;;;;3.15;100.00;99661.41;5093576;28;20261;-77
2023/01/31 02:11:17;;;;;;;5.27;1.80;;;;;;;3.01;100.00;99656.53;5093806;28;20355;-77
2023/01/31 02:13:45;;;;;;;7.05;3.28;;;;;;;2.85;100.00;99651.78;5080006;28;20292;-77
2023/01/31 02:16:11;;;;;;;6.13;3.30;;;;;;;2.80;100.00;99670.66;5073309;28;20464;-77
2023/01/31 02:18:37;;;;;;;8.53;4.43;;;;;;;2.69;100.00;99688.38;5073390;28;20265;-77
2023/01/31 02:21:53;;;;;;;7.13;3.80;;;;;;;2.68;100.00;99676.16;5073345;28;20801;-77
2023/01/31 02:24:31;;;;;;;8.50;4.03;;;;;;;2.55;100.00;99674.56;4991413;28;20042;-77
2023/01/31 02:27:39;;;;;;;8.97;4.67;;;;;;;2.40;100.00;99660.09;4991603;28;20291;-77
2023/01/31 02:30:46;;;;;;;9.83;4.67;;;;;;;2.36;100.00;99677.13;4991678;28;20264;-77
2023/01/31 02:33:16;;;;;;;8.83;4.87;;;;;;;2.26;100.00;99663.06;4990689;28;20284;-77
2023/01/31 02:35:51;;;;;;;9.93;5.63;;;;;;;2.16;100.00;99663.03;4991331;28;20270;-77
2023/01/31 02:38:17;;;;;;;9.70;5.00;;;;;;;2.12;100.00;99658.97;4991412;28;20264;-77
2023/01/31 02:40:52;;;;;;;10.60;4.80;;;;;;;2.01;100.00;99651.13;4991229;28;20750;-76
2023/01/31 02:44:58;;;;;;;8.57;4.77;;;;;;;1.96;100.00;99648.03;4991213;28;20058;-77
2023/01/31 02:46:55;;;;;;;11.30;4.97;;;;;;;2.00;100.00;99659.16;4991062;28;20271;-77
2023/01/31 02:49:35;;;;;;;9.43;5.47;;;;;;;1.95;100.00;99664.84;4987298;28;20632;-77
2023/01/31 02:52:16;;;;;;;9.73;4.87;;;;;;;2.09;100.00;99668.91;4991339;28;20824;-77
2023/01/31 02:57:37;;;;;;;6.13;3.00;;;;;;;2.41;100.00;99682.88;4991139;28;20255;-77
2023/01/31 03:00:05;;;;;;;4.30;2.10;;;;;;;2.61;100.00;99672.38;5034975;28;20740;-77
2023/01/31 03:02:31;;;;;;;4.27;2.20;;;;;;;2.84;100.00;99674.69;5072433;28;20307;-77
2023/01/31 03:04:57;;;;;;;4.27;2.07;;;;;;;2.82;100.00;99673.16;5072009;28;20675;-77
2023/01/31 03:07:28;;;;;;;4.17;1.80;;;;;;;3.09;100.00;99673.38;5072097;28;20527;-77
2023/01/31 03:10:18;;;;;;;4.70;2.50;;;;;;;3.42;100.00;99690.66;5072400;28;20120;-77
2023/01/31 03:13:12;;;;;;;6.00;1.70;;;;;;;3.48;100.00;99679.53;5072310;28;20291;-77
2023/01/31 03:19:23;;;;;;;3.93;1.63;;;;;;;3.43;100.00;99692.34;5092446;28;20255;-76
2023/01/31 03:22:00;;;;;;;3.53;1.53;;;;;;;3.45;100.00;99698.31;5092278;28;20338;-77
2023/01/31 03:24:29;;;;;;;3.13;1.50;;;;;;;3.40;100.00;99704.97;5092151;28;20343;-77
2023/01/31 03:26:57;;;;;;;3.30;1.50;;;;;;;3.54;100.00;99700.13;5092165;28;20623;-77
2023/01/31 03:29:26;;;;;;;3.77;1.80;;;;;;;3.53;100.00;99702.91;5092105;28;20289;-77
2023/01/31 03:32:05;;;;;;;4.50;1.73;;;;;;;3.51;100.00;99715.41;5092259;28;20265;-77
2023/01/31 03:34:31;;;;;;;5.47;1.60;;;;;;;3.47;100.00;99701.63;5091860;28;20315;-77
2023/01/31 03:37:12;;;;;;;4.50;1.67;;;;;;;3.55;100.00;99698.31;5073911;28;20343;-77
2023/01/31 03:39:55;;;;;;;4.60;1.70;;;;;;;3.45;100.00;99706.25;5092024;28;20486;-77
2023/01/31 03:42:33;;;;;;;3.55;1.63;;;;;;;3.50;100.00;99714.56;5091926;28;20272;-77
2023/01/31 03:45:08;;;;;;;5.40;2.00;;;;;;;3.62;100.00;99716.13;5091933;28;20031;-77
2023/01/31 03:47:43;;;;;;;4.73;1.63;;;;;;;3.68;100.00;99703.34;5091843;28;20762;-77
2023/01/31 03:50:16;;;;;;;4.40;1.40;;;;;;;3.73;100.00;99715.16;5091950;28;20620;-77
2023/01/31 03:53:03;;;;;;;3.78;1.60;;;;;;;3.68;100.00;99711.28;5091795;28;20351;-77
2023/01/31 03:55:40;;;;;;;5.10;1.73;;;;;;;3.56;100.00;99715.84;5091790;28;20055;-77
2023/01/31 03:58:09;;;;;;;7.53;1.50;;;;;;;3.71;100.00;99714.44;5073648;28;20261;-77
2023/01/31 04:00:38;;;;;;;3.50;2.03;;;;;;;3.76;100.00;99727.25;5091723;28;20253;-77
2023/01/31 04:03:13;;;;;;;4.33;1.50;;;;;;;3.78;100.00;99730.59;5073639;28;20264;-77
2023/01/31 04:05:39;;;;;;;3.23;1.53;;;;;;;3.71;100.00;99725.03;5091445;28;20288;-77
2023/01/31 04:08:05;;;;;;;5.07;1.60;;;;;;;3.82;100.00;99724.03;5091775;28;20265;-77
2023/01/31 04:10:31;;;;;;;5.73;1.60;;;;;;;3.79;100.00;99727.81;5073316;28;20256;-76
2023/01/31 04:12:56;;;;;;;3.57;1.33;;;;;;;3.78;100.00;99725.31;5091615;28;20027;-77
2023/01/31 04:15:22;;;;;;;2.93;1.30;;;;;;;3.73;100.00;99736.28;5075909;28;20020;-77
2023/01/31 04:17:47;;;;;;;3.53;1.33;;;;;;;3.77;100.00;99729.78;5071419;28;20028;-76
2023/01/31 04:20:13;;;;;;;2.33;1.17;;;;;;;3.81;100.00;99722.38;5087872;28;20463;-77
2023/01/31 04:22:38;;;;;;;3.03;1.50;;;;;;;3.96;100.00;99734.22;5091443;28;20031;-77
2023/01/31 04:25:05;;;;;;;4.33;1.33;;;;;;;3.91;100.00;99739.94;5091341;28;20027;-77
2023/01/31 04:27:30;;;;;;;6.37;1.73;;;;;;;3.82;100.00;99726.69;5073219;28;20021;-77
2023/01/31 04:29:56;;;;;;;4.63;1.90;;;;;;;3.67;100.00;99743.97;5091472;28;20325;-77
2023/01/31 04:32:21;;;;;;;3.30;1.40;;;;;;;3.73;100.00;99744.22;5091336;28;20039;-77
2023/01/31 04:34:47;;;;;;;2.63;1.37;;;;;;;3.70;100.00;99741.84;5091283;28;20048;-77
2023/01/31 04:37:12;;;;;;;2.97;1.40;;;;;;;3.83;100.00;99744.22;5091183;28;20379;-77
2023/01/31 04:39:38;;;;;;;3.37;1.30;;;;;;;3.78;100.00;99760.53;5091398;28;20028;-77
2023/01/31 04:42:03;;;;;;;3.33;1.60;;;;;;;3.74;100.00;99759.13;5091341;28;20051;-77
2023/01/31 04:44:29;;;;;;;2.77;1.47;;;;;;;3.76;100.00;99770.38;5091147;28;20089;-77
2023/01/31 04:46:54;;;;;;;4.10;1.50;;;;;;;3.74;100.00;99776.78;5091255;28;20035;-77
2023/01/31 04:49:20;;;;;;;3.20;1.40;;;;;;;3.70;100.00;99773.56;5091211;28;20024;-77
2023/01/31 04:51:46;;;;;;;3.83;1.60;;;;;;;3.83;100.00;99770.66;5091244;28;20452;-77
2023/01/31 04:54:11;;;;;;;3.63;1.50;;;;;;;3.79;100.00;99771.94;5090881;28;20099;-77
2023/01/31 04:56:37;;;;;;;5.70;1.57;;;;;;;3.82;100.00;99775.09;5091058;28;20031;-77
2023/01/31 04:59:02;;;;;;;3.33;1.60;;;;;;;3.88;100.00;99776.38;5091159;28;20035;-77
2023/01/31 05:01:29;;;;;;;5.27;2.00;;;;;;;3.87;100.00;99772.06;5091062;28;20066;-76
2023/01/31 05:03:55;;;;;;;3.87;1.80;;;;;;;3.90;100.00;99788.50;5090959;28;20093;-77
2023/01/31 05:06:21;;;;;;;3.40;1.50;;;;;;;3.94;100.00;99784.59;5072867;28;20257;-77
2023/01/31 05:08:47;;;;;;;4.33;1.40;;;;;;;3.98;100.00;99790.44;5090985;28;20024;-77
2023/01/31 05:11:13;;;;;;;2.87;1.30;;;;;;;3.90;100.00;99790.31;5090914;28;20260;-77
2023/01/31 05:13:39;;;;;;;3.40;1.70;;;;;;;3.79;100.00;99785.97;5071460;28;20327;-76
2023/01/31 05:16:07;;;;;;;4.37;1.60;;;;;;;3.80;100.00;99797.41;5070578;28;20261;-77
2023/01/31 05:18:34;;;;;;;3.47;1.50;;;;;;;3.76;100.00;99801.28;5070532;28;20311;-77
2023/01/31 05:21:01;;;;;;;3.40;1.50;;;;;;;3.63;100.00;99783.88;5088076;28;20265;-76
2023/01/31 05:23:28;;;;;;;4.97;1.70;;;;;;;3.64;100.00;99808.47;5074371;28;20331;-77
2023/01/31 05:25:53;;;;;;;3.80;1.40;;;;;;;3.68;100.00;99801.97;5076447;28;20269;-77
2023/01/31 05:28:19;;;;;;;4.10;1.60;;;;;;;3.66;100.00;99809.19;5094396;28;20265;-77
2023/01/31 05:30:44;;;;;;;4.87;2.03;;;;;;;3.72;100.00;99816.56;5094633;28;20081;-77
2023/01/31 05:33:10;;;;;;;3.23;1.40;;;;;;;3.82;100.00;99816.56;5094426;28;20022;-77
2023/01/31 05:35:37;;;;;;;5.63;1.60;;;;;;;3.86;100.00;99808.25;5094358;28;20031;-77
2023/01/31 05:38:03;;;;;;;2.73;1.50;;;;;;;3.85;100.00;99814.50;5094356;28;20027;-76
2023/01/31 05:40:28;;;;;;;3.57;1.37;;;;;;;3.89;100.00;99809.78;5094249;28;20341;-76
2023/01/31 05:42:56;;;;;;;3.93;1.53;;;;;;;3.90;100.00;99820.22;5094167;28;20036;-77
2023/01/31 05:45:22;;;;;;;2.73;1.50;;;;;;;3.90;100.00;99822.88;5094177;28;20406;-77
2023/01/31 05:47:48;;;;;;;4.87;1.87;;;;;;;3.77;100.00;99814.34;5094091;28;20333;-77
2023/01/31 05:50:14;;;;;;;3.83;1.73;;;;;;;3.77;100.00;99814.34;5094142;28;20276;-77
2023/01/31 05:52:39;;;;;;;4.73;1.57;;;;;;;3.92;100.00;99806.88;5094247;28;20031;-77
2023/01/31 05:55:05;;;;;;;4.37;1.70;;;;;;;3.85;100.00;99821.59;5093923;28;20632;-77
2023/01/31 05:57:31;;;;;;;4.43;1.40;;;;;;;3.75;100.00;99811.00;5093907;28;20032;-76
2023/01/31 05:59:56;;;;;;;5.50;1.93;;;;;;;3.74;100.00;99809.34;5094077;28;20027;-77
2023/01/31 06:02:22;;;;;;;4.50;1.90;;;;;;;3.62;100.00;99805.97;5093736;28;20058;-77
2023/01/31 06:04:48;;;;;;;4.57;1.80;;;;;;;3.50;100.00;99820.28;5093597;28;20133;-77
2023/01/31 06:07:14;;;;;;;4.87;1.73;;;;;;;3.44;100.00;99828.75;5093697;28;20158;-77
2023/01/31 06:09:40;;;;;;;5.33;1.70;;;;;;;3.26;100.00;99827.69;5075699;28;20264;-77
2023/01/31 06:12:13;;;;;;;4.47;1.47;;;;;;;3.23;100.00;99834.06;5093726;28;20351;-77
2023/01/31 06:14:38;;;;;;;4.63;1.80;;;;;;;3.15;100.00;99838.34;5062525;28;20791;-77
2023/01/31 06:17:04;;;;;;;5.00;1.50;;;;;;;3.16;100.00;99847.94;5053350;28;20311;-77
2023/01/31 06:19:29;;;;;;;4.37;1.80;;;;;;;3.29;100.00;99843.28;5053146;28;20043;-77
2023/01/31 06:21:55;;;;;;;3.83;1.30;;;;;;;3.37;100.00;99869.03;5053269;28;20039;-77
2023/01/31 06:24:20;;;;;;;3.27;1.50;;;;;;;3.46;100.00;99860.31;5053192;28;20029;-77
2023/01/31 06:26:46;;;;;;;4.00;1.47;;;;;;;3.49;100.00;99857.38;5053281;28;20108;-77
2023/01/31 06:29:11;;;;;;;3.47;1.60;;;;;;;3.73;100.00;99878.19;5053103;28;20029;-77
2023/01/31 06:31:37;;;;;;;4.80;1.60;;;;;;;3.69;100.00;99868.88;5053038;28;20064;-77
2023/01/31 06:34:02;;;;;;;3.77;1.50;;;;;;;3.74;99.53;99871.94;5052679;28;20108;-77
2023/01/31 06:36:31;;;;;;;2.53;1.30;;;;;;;3.89;100.00;99886.47;5053618;28;20036;-76
2023/01/31 06:38:56;;;;;;;4.03;1.50;;;;;;;3.92;100.00;99886.19;5074356;28;20502;-77
2023/01/31 06:41:22;;;;;;;3.43;1.43;;;;;;;3.94;96.58;99898.28;5073285;28;20269;-77
2023/01/31 06:43:47;;;;;;;3.60;1.43;;;;;;;3.83;95.80;99894.91;5071727;28;20035;-77
2023/01/31 06:46:13;;;;;;;6.00;1.63;;;;;;;3.91;94.43;99906.50;5072250;28;20043;-76
2023/01/31 06:48:38;;;;;;;4.33;1.40;;;;;;;4.00;91.95;99918.06;5054637;28;20142;-76
2023/01/31 06:51:04;;;;;;;5.00;1.50;;;;;;;3.99;91.37;99924.34;5071855;28;20050;-78
2023/01/31 06:53:29;;;;;;;5.50;1.30;;;;;;;4.03;91.25;99924.91;5070115;28;20036;-74
2023/01/31 06:55:55;;;;;;;3.97;1.30;;;;;;;3.97;91.10;99935.03;5070452;28;20029;-76
2023/01/31 06:58:20;;;;;;;3.63;1.60;;;;;;;4.06;90.02;99945.78;5071562;28;20710;-76
2023/01/31 07:00:46;;;;;;;3.63;1.33;;;;;;;4.02;90.17;99932.00;5074537;28;20081;-76
2023/01/31 07:03:12;;;;;;;2.73;1.50;;;;;;;3.95;91.36;99939.63;5071233;28;20036;-75
2023/01/31 07:05:37;;;;;;;3.37;1.23;;;;;;;3.96;90.91;99961.63;5074455;28;20060;-75
2023/01/31 07:08:03;;;;;;;5.43;1.40;;;;;;;3.92;90.90;99944.38;5072094;28;20810;-75
2023/01/31 07:10:29;;;;;;;3.43;1.40;;;;;;;3.95;89.68;99931.69;5074744;28;20134;-76
2023/01/31 07:12:54;;;;;;;4.43;1.40;;;;;;;3.91;91.07;99940.88;5071920;28;20475;-76
2023/01/31 07:15:20;;;;;;;4.13;1.83;;;;;;;3.92;92.17;99944.38;5071712;28;20036;-76
2023/01/31 07:17:45;;;;;;;4.87;1.57;;;;;;;3.84;90.38;99950.31;5066924;28;20029;-77
2023/01/31 07:20:11;;;;;;;10.27;2.63;;;;;;;3.88;90.59;99957.00;5081708;28;20036;-77
2023/01/31 07:22:37;;;;;;;3.73;1.47;;;;;;;3.91;89.77;99961.19;5091949;28;20032;-78
2023/01/31 07:25:02;;;;;;;4.63;1.60;;;;;;;3.87;88.54;99963.25;5074087;28;20077;-77
2023/01/31 07:27:28;;;;;;;4.47;1.57;;;;;;;3.84;88.81;99970.63;5089272;28;20067;-77
2023/01/31 07:29:53;;;;;;;6.17;2.00;;;;;;;3.84;86.68;99962.69;5071188;28;20372;-76
2023/01/31 07:32:21;;;;;;;5.77;1.40;;;;;;;3.81;87.05;99970.88;5071556;28;20028;-76
2023/01/31 07:34:46;;;;;;;3.73;1.50;;;;;;;3.73;88.02;99979.47;5071553;28;20060;-76
2023/01/31 07:37:12;;;;;;;4.43;1.60;;;;;;;3.75;87.15;99979.34;5071128;28;20284;-77
2023/01/31 07:39:37;;;;;;;5.73;1.53;;;;;;;3.73;87.89;99987.41;5071657;28;20043;-76
2023/01/31 07:42:03;;;;;;;3.57;1.40;;;;;;;3.77;87.54;99993.28;5071487;28;20028;-78
2023/01/31 07:44:29;;;;;;;4.93;1.43;;;;;;;3.89;84.70;100001.00;5053640;28;20028;-75
2023/01/31 07:46:55;;;;;;;4.83;1.50;;;;;;;4.00;83.86;100000.06;5070863;28;20033;-75
2023/01/31 07:49:21;;;;;;;3.83;1.50;;;;;;;4.04;82.61;100004.09;5071396;28;20093;-76
2023/01/31 07:51:46;;;;;;;5.03;1.50;;;;;;;4.04;81.81;100013.84;5071729;28;20658;-75
2023/01/31 07:54:12;;;;;;;4.13;1.60;;;;;;;4.02;81.69;100003.41;5071586;28;20033;-77
2023/01/31 07:56:37;;;;;;;3.43;1.30;;;;;;;3.95;82.81;100010.19;5071142;28;20043;-77
2023/01/31 07:59:03;;;;;;;3.57;1.50;;;;;;;3.91;82.24;100016.72;5070706;28;20032;-77
2023/01/31 08:04:15;;;;;;;3.50;1.40;;;;;;;4.11;79.74;100021.13;5070925;28;20087;-78
2023/01/31 08:06:43;;;;;;;5.93;1.40;;;;;;;4.26;77.61;100013.66;5072136;28;20712;-78
2023/01/31 08:09:10;;;;;;;5.77;1.30;;;;;;;4.36;78.10;100014.50;5070908;28;20270;-78
2023/01/31 08:11:38;;;;;;;4.03;2.20;;;;;;;4.32;79.82;100013.09;5071304;28;20284;-78
2023/01/31 08:14:07;;;;;;;6.10;1.40;;;;;;;4.38;77.99;100031.91;5053608;28;20625;-78
2023/01/31 08:16:33;;;;;;;5.50;1.40;;;;;;;4.40;79.11;100030.94;5071382;28;20268;-78
2023/01/31 08:18:58;;;;;;;6.20;1.47;;;;;;;4.43;78.10;100036.81;5086929;28;20269;-78
2023/01/31 08:21:23;;;;;;;4.80;1.40;;;;;;;4.54;79.16;100034.03;5091265;28;20119;-78
2023/01/31 08:23:49;;;;;;;5.70;1.60;;;;;;;4.50;80.87;100034.47;5076823;28;20539;-76
2023/01/31 08:26:17;;;;;;;3.03;1.20;;;;;;;4.49;81.28;100043.38;5071433;28;20078;-76
2023/01/31 08:28:44;;;;;;;3.80;1.40;;;;;;;4.50;82.72;100050.34;5071422;28;20032;-76
2023/01/31 08:31:16;;;;;;;6.33;1.30;;;;;;;4.46;84.24;100055.06;5051163;28;20349;-77
2023/01/31 08:33:43;;;;;;;7.27;1.40;;;;;;;4.46;85.33;100062.16;5052598;28;20299;-77
2023/01/31 08:36:18;;;;;;;3.53;1.27;;;;;;;4.38;86.13;100060.19;5070782;28;20265;-79
2023/01/31 08:38:48;;;;;;;4.73;1.37;;;;;;;4.34;86.64;100054.31;5049889;28;20748;-77
2023/01/31 08:41:15;;;;;;;2.90;1.20;;;;;;;4.37;88.91;100061.16;5051682;28;20270;-76
2023/01/31 08:43:41;;;;;;;4.30;1.40;;;;;;;4.34;87.45;100043.75;5051153;28;20349;-76
2023/01/31 08:46:06;;;;;;;5.07;1.57;;;;;;;4.33;89.06;100054.47;5051212;28;20340;-77
2023/01/31 08:48:33;;;;;;;6.90;1.63;;;;;;;4.40;89.18;100049.44;5050738;28;20029;-76
2023/01/31 08:51:01;;;;;;;5.20;1.70;;;;;;;4.43;93.62;100046.53;5051029;28;20029;-78
2023/01/31 08:53:26;;;;;;;8.03;2.10;;;;;;;4.45;98.29;100061.31;5050849;28;20289;-78
2023/01/31 08:55:57;;;;;;;10.83;2.73;;;;;;;4.43;100.00;100043.91;5051054;28;20276;-78
2023/01/31 08:58:23;;;;;;;6.17;2.57;;;;;;;4.33;100.00;100055.31;5051485;28;20033;-77
2023/01/31 09:00:48;;;;;;;10.27;3.40;;;;;;;4.34;100.00;100064.91;5066317;28;20291;-77
2023/01/31 09:03:18;;;;;;;9.90;3.57;;;;;;;4.42;100.00;100072.16;5074433;28;20081;-78
2023/01/31 09:05:44;;;;;;;10.83;4.03;;;;;;;4.45;100.00;100057.84;5074706;28;20052;-77
2023/01/31 09:08:11;;;;;;;9.17;4.17;;;;;;;4.44;100.00;100058.81;5074515;28;20271;-77
2023/01/31 09:10:37;;;;;;;14.50;4.53;;;;;;;4.51;100.00;100057.28;5073528;28;20624;-77
2023/01/31 09:13:02;;;;;;;9.40;3.63;;;;;;;4.47;100.00;100064.69;5074093;28;20348;-77
2023/01/31 09:15:28;;;;;;;9.70;3.80;;;;;;;4.36;100.00;100070.91;5071517;28;20459;-76
2023/01/31 09:17:53;;;;;;;7.77;3.33;;;;;;;4.26;100.00;100074.50;5080908;28;20028;-77
2023/01/31 09:20:19;;;;;;;8.37;3.27;;;;;;;4.11;100.00;100078.47;5094764;28;20403;-76
2023/01/31 09:22:44;;;;;;;8.57;3.40;;;;;;;3.98;100.00;100092.75;5081996;28;20419;-76
2023/01/31 09:25:10;;;;;;;7.20;3.67;;;;;;;3.98;100.00;100091.91;5073907;28;20032;-76
2023/01/31 09:27:37;;;;;;;8.43;3.30;;;;;;;3.98;100.00;100100.66;5073751;28;20463;-77
2023/01/31 09:30:07;;;;;;;8.00;3.30;;;;;;;3.94;100.00;100095.75;5073908;28;20103;-77
2023/01/31 09:32:32;;;;;;;8.77;3.60;;;;;;;3.95;100.00;100098.28;5071834;28;20310;-78
2023/01/31 09:34:58;;;;;;;10.50;3.73;;;;;;;3.98;100.00;100091.91;5072808;28;20759;-78
2023/01/31 09:37:23;;;;;;;10.63;4.90;;;;;;;3.97;100.00;100091.06;5074357;28;20488;-78
2023/01/31 09:39:49;;;;;;;10.40;4.20;;;;;;;3.99;100.00;100098.88;5073815;28;20028;-76
2023/01/31 09:42:20;;;;;;;9.00;4.27;;;;;;;3.99;100.00;100096.22;5073963;28;20028;-77
2023/01/31 09:44:54;;;;;;;11.90;4.50;;;;;;;3.83;100.00;100106.41;5073705;28;20032;-77
2023/01/31 09:47:27;;;;;;;10.73;4.80;;;;;;;3.89;100.00;100109.41;5073731;28;20254;-77
2023/01/31 09:50:04;;;;;;;9.65;4.50;;;;;;;4.03;100.00;100110.03;5073650;28;20268;-77
2023/01/31 09:52:31;;;;;;;10.57;4.90;;;;;;;4.06;100.00;100107.94;5073647;28;20159;-77
2023/01/31 09:54:57;;;;;;;13.47;4.33;;;;;;;4.18;100.00;100108.69;5073435;28;20277;-77
2023/01/31 09:57:44;;;;;;;10.37;4.30;;;;;;;4.16;100.00;100110.63;5073351;28;20277;-77
2023/01/31 10:00:13;;;;;;;7.73;3.83;;;;;;;4.12;100.00;100102.13;5073429;28;20318;-76
2023/01/31 10:03:10;;;;;;;7.13;3.97;;;;;;;4.25;100.00;100110.69;5073055;28;20597;-77
2023/01/31 10:05:51;;;;;;;9.77;3.87;;;;;;;4.25;100.00;100108.06;5073064;28;20277;-76
2023/01/31 10:08:22;;;;;;;6.93;3.40;;;;;;;4.36;100.00;100107.13;5072740;28;20287;-76
2023/01/31 10:10:52;;;;;;;9.90;4.00;;;;;;;4.37;100.00;100114.09;5055403;28;20261;-77
2023/01/31 10:13:28;;;;;;;7.83;3.10;;;;;;;4.27;100.00;100100.78;5073441;28;20659;-77
2023/01/31 10:16:12;;;;;;;8.13;3.20;;;;;;;4.32;100.00;100113.63;5073274;28;20343;-77
2023/01/31 10:18:41;;;;;;;;;;;;;;;4.44;100.00;100109.09;5086408;28;20787;-76
2023/01/31 10:21:15;;;;;;;11.03;3.00;;;;;;;4.42;100.00;100108.38;5093376;28;20395;-77
2023/01/31 10:23:45;;;;;;;5.90;2.60;;;;;;;4.43;100.00;100104.75;5067001;28;20320;-76
2023/01/31 10:26:19;;;;;;;8.27;3.20;;;;;;;4.42;100.00;100111.03;5034993;28;20319;-75
2023/01/31 10:28:54;;;;;;;9.17;3.67;;;;;;;4.13;100.00;100106.47;5035012;28;20304;-75
2023/01/31 10:31:26;;;;;;;7.47;3.37;;;;;;;4.26;100.00;100116.81;5053134;28;20748;-76
2023/01/31 10:34:13;;;;;;;7.43;3.50;;;;;;;4.21;100.00;100109.28;5052656;28;20278;-75
2023/01/31 10:36:56;;;;;;;10.43;4.27;;;;;;;4.28;100.00;100115.69;5060057;28;20265;-75
2023/01/31 10:39:27;;;;;;;8.88;3.55;;;;;;;4.36;100.00;100118.53;5072620;28;20268;-75
2023/01/31 10:42:02;;;;;;;8.60;4.00;;;;;;;4.44;100.00;100111.75;5072498;28;20028;-75
2023/01/31 10:44:51;;;;;;;10.10;3.70;;;;;;;4.34;100.00;100117.84;5072219;28;20258;-75
2023/01/31 10:47:18;;;;;;;10.90;3.80;;;;;;;4.34;100.00;100096.66;5072510;28;20261;-77
2023/01/31 10:49:47;;;;;;;9.83;4.00;;;;;;;4.29;100.00;100095.38;5072410;28;20799;-76
2023/01/31 10:52:24;;;;;;;10.13;4.10;;;;;;;4.45;100.00;100100.19;5072493;28;20261;-77
2023/01/31 10:55:28;;;;;;;7.80;3.83;;;;;;;4.38;100.00;100101.69;5072203;28;21080;-77
2023/01/31 10:57:53;;;;;;;10.23;4.28;;;;;;;4.31;100.00;100111.97;5069609;28;20276;-77
2023/01/31 11:00:28;;;;;;;7.80;4.00;;;;;;;4.43;100.00;100099.47;5072063;28;20024;-76
2023/01/31 11:02:54;;;;;;;12.27;5.00;;;;;;;4.46;100.00;100096.56;5072154;28;20032;-76
2023/01/31 11:05:23;;;;;;;10.70;4.30;;;;;;;4.38;100.00;100099.91;5072341;28;21023;-76
2023/01/31 11:07:49;;;;;;;11.17;3.90;;;;;;;4.48;100.00;100100.75;5072328;28;20276;-76
2023/01/31 11:10:32;;;;;;;9.17;4.43;;;;;;;4.47;100.00;100087.66;5072131;28;20261;-76
2023/01/31 11:13:06;;;;;;;8.33;3.70;;;;;;;4.46;100.00;100094.75;5071857;28;20285;-76
2023/01/31 11:15:41;;;;;;;9.87;4.17;;;;;;;4.52;100.00;100091.56;5071417;28;20644;-75
2023/01/31 11:18:13;;;;;;;10.70;5.20;;;;;;;4.60;100.00;100082.97;5079931;28;20724;-75
2023/01/31 11:20:46;;;;;;;8.97;5.07;;;;;;;4.58;100.00;100077.81;5073051;28;20286;-75
2023/01/31 11:23:22;;;;;;;11.88;5.93;;;;;;;4.67;100.00;100084.09;5083297;28;20778;-73
2023/01/31 11:25:51;;;;;;;9.03;4.90;;;;;;;4.59;100.00;100076.00;5070923;28;20048;-74
2023/01/31 11:28:32;;;;;;;13.03;4.27;;;;;;;4.49;100.00;100069.84;5071687;28;20334;-75
2023/01/31 11:30:58;;;;;;;11.10;4.23;;;;;;;4.50;100.00;100071.53;5071082;28;20322;-76
2023/01/31 11:34:03;;;;;;;9.43;4.30;;;;;;;4.61;100.00;100072.25;5071135;28;20257;-77
2023/01/31 11:36:42;;;;;;;9.67;4.30;;;;;;;4.48;100.00;100042.53;5053784;28;20690;-77
2023/01/31 11:39:27;;;;;;;9.03;4.03;;;;;;;4.59;100.00;100065.41;5071044;28;20269;-77
2023/01/31 11:41:53;;;;;;;8.87;4.30;;;;;;;4.61;100.00;100055.53;5071231;28;20265;-76
2023/01/31 11:44:21;;;;;;;9.50;4.07;;;;;;;4.65;100.00;100056.91;5070927;28;20776;-77
2023/01/31 11:46:55;;;;;;;9.37;3.87;;;;;;;4.73;100.00;100057.88;5071394;28;20547;-77
2023/01/31 11:49:33;;;;;;;6.43;3.17;;;;;;;4.70;100.00;100055.53;5071429;28;20277;-77
2023/01/31 11:52:19;;;;;;;7.17;3.47;;;;;;;4.73;100.00;100054.41;5071666;28;20268;-76
2023/01/31 11:54:57;;;;;;;7.80;3.60;;;;;;;4.60;100.00;100054.69;5071824;28;20748;-78